sensor_id;sensor_type;location;lat;lon;timestamp;P1;durP1;ratioP1;P2;durP2;ratioP2
71888;SDS011;59762;49.998;14.858;2024-03-06T00:02:05;36.58;;;14.93;;
71888;SDS011;59762;49.998;14.858;2024-03-06T00:04:31;34.05;;;14.45;;
71888;SDS011;59762;49.998;14.858;2024-03-06T00:06:56;38.65;;;14.23;;
71888;SDS011;59762;49.998;14.858;2024-03-06T00:09:23;30.02;;;13.43;;
71888;SDS011;59762;49.998;14.858;2024-03-06T00:11:49;39.67;;;11.55;;
71888;SDS011;59762;49.998;14.858;2024-03-06T00:14:16;37.53;;;12.30;;
71888;SDS011;59762;49.998;14.858;2024-03-06T00:16:45;26.20;;;10.85;;
71888;SDS011;59762;49.998;14.858;2024-03-06T00:19:10;28.90;;;12.32;;
71888;SDS011;59762;49.998;14.858;2024-03-06T00:21:36;23.67;;;11.27;;
71888;SDS011;59762;49.998;14.858;2024-03-06T00:24:02;28.92;;;12.00;;
71888;SDS011;59762;49.998;14.858;2024-03-06T00:26:29;39.10;;;15.73;;
71888;SDS011;59762;49.998;14.858;2024-03-06T00:28:54;40.88;;;18.90;;
71888;SDS011;59762;49.998;14.858;2024-03-06T00:31:20;53.80;;;23.75;;
71888;SDS011;59762;49.998;14.858;2024-03-06T00:33:45;83.13;;;32.75;;
71888;SDS011;59762;49.998;14.858;2024-03-06T00:36:11;63.58;;;25.35;;
71888;SDS011;59762;49.998;14.858;2024-03-06T00:38:36;40.65;;;15.95;;
71888;SDS011;59762;49.998;14.858;2024-03-06T00:41:02;36.33;;;16.40;;
71888;SDS011;59762;49.998;14.858;2024-03-06T00:43:28;31.20;;;13.63;;
71888;SDS011;59762;49.998;14.858;2024-03-06T00:45:54;25.65;;;13.35;;
71888;SDS011;59762;49.998;14.858;2024-03-06T00:48:19;31.35;;;12.13;;
71888;SDS011;59762;49.998;14.858;2024-03-06T00:50:45;33.63;;;12.43;;
71888;SDS011;59762;49.998;14.858;2024-03-06T00:53:11;27.00;;;13.48;;
71888;SDS011;59762;49.998;14.858;2024-03-06T00:55:36;29.73;;;13.48;;
71888;SDS011;59762;49.998;14.858;2024-03-06T00:58:02;26.10;;;12.18;;
71888;SDS011;59762;49.998;14.858;2024-03-06T01:00:27;33.58;;;12.38;;
71888;SDS011;59762;49.998;14.858;2024-03-06T01:02:53;36.47;;;14.43;;
71888;SDS011;59762;49.998;14.858;2024-03-06T01:05:19;30.02;;;13.35;;
71888;SDS011;59762;49.998;14.858;2024-03-06T01:07:44;30.30;;;13.60;;
71888;SDS011;59762;49.998;14.858;2024-03-06T01:10:10;25.98;;;11.80;;
71888;SDS011;59762;49.998;14.858;2024-03-06T01:12:35;24.10;;;10.90;;
71888;SDS011;59762;49.998;14.858;2024-03-06T01:15:01;24.75;;;11.80;;
71888;SDS011;59762;49.998;14.858;2024-03-06T01:17:26;38.03;;;13.73;;
71888;SDS011;59762;49.998;14.858;2024-03-06T01:19:52;29.73;;;12.00;;
71888;SDS011;59762;49.998;14.858;2024-03-06T01:22:18;32.47;;;14.60;;
71888;SDS011;59762;49.998;14.858;2024-03-06T01:24:44;37.30;;;14.88;;
71888;SDS011;59762;49.998;14.858;2024-03-06T01:27:09;39.35;;;14.68;;
71888;SDS011;59762;49.998;14.858;2024-03-06T01:29:35;33.75;;;13.93;;
71888;SDS011;59762;49.998;14.858;2024-03-06T01:32:00;41.03;;;15.48;;
71888;SDS011;59762;49.998;14.858;2024-03-06T01:34:26;26.25;;;12.18;;
71888;SDS011;59762;49.998;14.858;2024-03-06T01:36:52;31.13;;;11.63;;
71888;SDS011;59762;49.998;14.858;2024-03-06T01:39:17;29.08;;;12.82;;
71888;SDS011;59762;49.998;14.858;2024-03-06T01:41:46;27.23;;;11.23;;
71888;SDS011;59762;49.998;14.858;2024-03-06T01:44:13;28.83;;;12.35;;
71888;SDS011;59762;49.998;14.858;2024-03-06T01:46:38;24.95;;;10.15;;
71888;SDS011;59762;49.998;14.858;2024-03-06T01:49:04;21.92;;;10.68;;
71888;SDS011;59762;49.998;14.858;2024-03-06T01:51:30;29.35;;;11.50;;
71888;SDS011;59762;49.998;14.858;2024-03-06T01:53:56;24.13;;;10.75;;
71888;SDS011;59762;49.998;14.858;2024-03-06T01:56:21;19.83;;;9.90;;
71888;SDS011;59762;49.998;14.858;2024-03-06T01:58:47;26.95;;;12.30;;
71888;SDS011;59762;49.998;14.858;2024-03-06T02:01:13;22.92;;;9.25;;
71888;SDS011;59762;49.998;14.858;2024-03-06T02:03:38;18.58;;;9.95;;
71888;SDS011;59762;49.998;14.858;2024-03-06T02:06:04;22.88;;;12.30;;
71888;SDS011;59762;49.998;14.858;2024-03-06T02:08:30;25.48;;;9.82;;
71888;SDS011;59762;49.998;14.858;2024-03-06T02:10:56;24.25;;;10.88;;
71888;SDS011;59762;49.998;14.858;2024-03-06T02:13:21;21.48;;;9.68;;
71888;SDS011;59762;49.998;14.858;2024-03-06T02:15:47;28.45;;;12.00;;
71888;SDS011;59762;49.998;14.858;2024-03-06T02:18:13;21.48;;;9.80;;
71888;SDS011;59762;49.998;14.858;2024-03-06T02:20:38;31.02;;;12.93;;
71888;SDS011;59762;49.998;14.858;2024-03-06T02:23:05;28.38;;;10.95;;
71888;SDS011;59762;49.998;14.858;2024-03-06T02:25:31;26.58;;;11.60;;
71888;SDS011;59762;49.998;14.858;2024-03-06T02:27:57;28.27;;;12.48;;
71888;SDS011;59762;49.998;14.858;2024-03-06T02:30:22;24.45;;;11.95;;
71888;SDS011;59762;49.998;14.858;2024-03-06T02:32:47;28.92;;;13.23;;
71888;SDS011;59762;49.998;14.858;2024-03-06T02:35:13;23.80;;;11.50;;
71888;SDS011;59762;49.998;14.858;2024-03-06T02:37:40;27.20;;;10.68;;
71888;SDS011;59762;49.998;14.858;2024-03-06T02:40:06;30.17;;;10.30;;
71888;SDS011;59762;49.998;14.858;2024-03-06T02:42:32;27.55;;;10.45;;
71888;SDS011;59762;49.998;14.858;2024-03-06T02:44:58;28.77;;;12.15;;
71888;SDS011;59762;49.998;14.858;2024-03-06T02:47:24;22.15;;;11.45;;
71888;SDS011;59762;49.998;14.858;2024-03-06T02:49:49;19.15;;;9.98;;
71888;SDS011;59762;49.998;14.858;2024-03-06T02:52:15;28.25;;;11.90;;
71888;SDS011;59762;49.998;14.858;2024-03-06T02:54:41;23.63;;;11.57;;
71888;SDS011;59762;49.998;14.858;2024-03-06T02:57:07;25.88;;;11.45;;
71888;SDS011;59762;49.998;14.858;2024-03-06T02:59:32;23.60;;;10.10;;
71888;SDS011;59762;49.998;14.858;2024-03-06T03:01:58;21.73;;;9.85;;
71888;SDS011;59762;49.998;14.858;2024-03-06T03:04:23;25.98;;;11.15;;
71888;SDS011;59762;49.998;14.858;2024-03-06T03:06:49;20.92;;;11.95;;
71888;SDS011;59762;49.998;14.858;2024-03-06T03:09:14;25.17;;;11.48;;
71888;SDS011;59762;49.998;14.858;2024-03-06T03:11:41;23.77;;;9.70;;
71888;SDS011;59762;49.998;14.858;2024-03-06T03:14:07;20.08;;;10.88;;
71888;SDS011;59762;49.998;14.858;2024-03-06T03:16:33;24.10;;;10.63;;
71888;SDS011;59762;49.998;14.858;2024-03-06T03:18:58;26.17;;;11.25;;
71888;SDS011;59762;49.998;14.858;2024-03-06T03:21:25;25.35;;;10.90;;
71888;SDS011;59762;49.998;14.858;2024-03-06T03:23:50;22.98;;;11.38;;
71888;SDS011;59762;49.998;14.858;2024-03-06T03:26:16;22.15;;;10.82;;
71888;SDS011;59762;49.998;14.858;2024-03-06T03:28:41;26.60;;;11.23;;
71888;SDS011;59762;49.998;14.858;2024-03-06T03:31:07;23.50;;;10.88;;
71888;SDS011;59762;49.998;14.858;2024-03-06T03:33:34;28.90;;;11.77;;
71888;SDS011;59762;49.998;14.858;2024-03-06T03:36:01;21.27;;;10.05;;
71888;SDS011;59762;49.998;14.858;2024-03-06T03:38:27;26.75;;;11.50;;
71888;SDS011;59762;49.998;14.858;2024-03-06T03:40:53;25.15;;;9.05;;
71888;SDS011;59762;49.998;14.858;2024-03-06T03:43:18;29.17;;;12.40;;
71888;SDS011;59762;49.998;14.858;2024-03-06T03:45:44;29.50;;;12.48;;
71888;SDS011;59762;49.998;14.858;2024-03-06T03:48:10;22.85;;;11.75;;
71888;SDS011;59762;49.998;14.858;2024-03-06T03:50:35;24.17;;;10.73;;
71888;SDS011;59762;49.998;14.858;2024-03-06T03:53:01;24.33;;;12.95;;
71888;SDS011;59762;49.998;14.858;2024-03-06T03:55:27;26.60;;;12.15;;
71888;SDS011;59762;49.998;14.858;2024-03-06T03:57:52;28.40;;;11.70;;
71888;SDS011;59762;49.998;14.858;2024-03-06T04:00:18;24.65;;;12.50;;
71888;SDS011;59762;49.998;14.858;2024-03-06T04:02:43;27.98;;;12.07;;
71888;SDS011;59762;49.998;14.858;2024-03-06T04:05:09;24.88;;;10.75;;
71888;SDS011;59762;49.998;14.858;2024-03-06T04:07:35;22.77;;;11.98;;
71888;SDS011;59762;49.998;14.858;2024-03-06T04:10:01;25.50;;;12.95;;
71888;SDS011;59762;49.998;14.858;2024-03-06T04:12:26;26.77;;;13.15;;
71888;SDS011;59762;49.998;14.858;2024-03-06T04:14:52;30.05;;;12.05;;
71888;SDS011;59762;49.998;14.858;2024-03-06T04:17:17;25.88;;;12.43;;
71888;SDS011;59762;49.998;14.858;2024-03-06T04:19:43;25.20;;;11.18;;
71888;SDS011;59762;49.998;14.858;2024-03-06T04:22:08;29.88;;;11.65;;
71888;SDS011;59762;49.998;14.858;2024-03-06T04:24:34;27.77;;;13.13;;
71888;SDS011;59762;49.998;14.858;2024-03-06T04:26:59;24.85;;;10.40;;
71888;SDS011;59762;49.998;14.858;2024-03-06T04:29:25;24.65;;;9.40;;
71888;SDS011;59762;49.998;14.858;2024-03-06T04:31:51;19.25;;;9.77;;
71888;SDS011;59762;49.998;14.858;2024-03-06T04:34:16;25.15;;;11.52;;
71888;SDS011;59762;49.998;14.858;2024-03-06T04:36:42;32.33;;;11.88;;
71888;SDS011;59762;49.998;14.858;2024-03-06T04:39:07;24.80;;;12.70;;
71888;SDS011;59762;49.998;14.858;2024-03-06T04:41:33;19.95;;;11.35;;
71888;SDS011;59762;49.998;14.858;2024-03-06T04:43:59;29.48;;;13.10;;
71888;SDS011;59762;49.998;14.858;2024-03-06T04:46:26;24.40;;;11.98;;
71888;SDS011;59762;49.998;14.858;2024-03-06T04:48:51;29.50;;;12.77;;
71888;SDS011;59762;49.998;14.858;2024-03-06T04:51:17;26.58;;;13.20;;
71888;SDS011;59762;49.998;14.858;2024-03-06T04:53:45;23.60;;;11.32;;
71888;SDS011;59762;49.998;14.858;2024-03-06T04:56:10;24.92;;;11.63;;
71888;SDS011;59762;49.998;14.858;2024-03-06T04:58:36;20.88;;;12.00;;
71888;SDS011;59762;49.998;14.858;2024-03-06T05:01:02;31.13;;;13.00;;
71888;SDS011;59762;49.998;14.858;2024-03-06T05:03:29;26.48;;;11.88;;
71888;SDS011;59762;49.998;14.858;2024-03-06T05:05:55;31.83;;;14.02;;
71888;SDS011;59762;49.998;14.858;2024-03-06T05:08:20;28.92;;;12.07;;
71888;SDS011;59762;49.998;14.858;2024-03-06T05:10:46;24.83;;;12.40;;
71888;SDS011;59762;49.998;14.858;2024-03-06T05:13:12;33.58;;;14.02;;
71888;SDS011;59762;49.998;14.858;2024-03-06T05:15:37;30.75;;;12.02;;
71888;SDS011;59762;49.998;14.858;2024-03-06T05:18:04;22.85;;;13.05;;
71888;SDS011;59762;49.998;14.858;2024-03-06T05:20:30;38.70;;;16.83;;
71888;SDS011;59762;49.998;14.858;2024-03-06T05:22:56;31.90;;;17.20;;
71888;SDS011;59762;49.998;14.858;2024-03-06T05:25:22;30.40;;;15.43;;
71888;SDS011;59762;49.998;14.858;2024-03-06T05:27:47;36.58;;;18.05;;
71888;SDS011;59762;49.998;14.858;2024-03-06T05:30:13;38.90;;;16.70;;
71888;SDS011;59762;49.998;14.858;2024-03-06T05:32:40;36.08;;;16.90;;
71888;SDS011;59762;49.998;14.858;2024-03-06T05:35:06;30.60;;;13.85;;
71888;SDS011;59762;49.998;14.858;2024-03-06T05:37:32;30.85;;;15.23;;
71888;SDS011;59762;49.998;14.858;2024-03-06T05:39:59;37.38;;;15.50;;
71888;SDS011;59762;49.998;14.858;2024-03-06T05:42:25;29.08;;;14.82;;
71888;SDS011;59762;49.998;14.858;2024-03-06T05:44:55;58.30;;;22.40;;
71888;SDS011;59762;49.998;14.858;2024-03-06T05:47:51;39.53;;;17.25;;
71888;SDS011;59762;49.998;14.858;2024-03-06T05:50:17;43.97;;;17.98;;
71888;SDS011;59762;49.998;14.858;2024-03-06T05:52:44;34.38;;;16.67;;
71888;SDS011;59762;49.998;14.858;2024-03-06T05:55:09;40.38;;;18.23;;
71888;SDS011;59762;49.998;14.858;2024-03-06T05:57:35;41.33;;;17.33;;
71888;SDS011;59762;49.998;14.858;2024-03-06T06:00:00;43.22;;;20.75;;
71888;SDS011;59762;49.998;14.858;2024-03-06T06:02:26;56.47;;;19.55;;
71888;SDS011;59762;49.998;14.858;2024-03-06T06:04:51;41.85;;;16.55;;
71888;SDS011;59762;49.998;14.858;2024-03-06T06:07:17;42.28;;;16.05;;
71888;SDS011;59762;49.998;14.858;2024-03-06T06:09:42;54.25;;;18.50;;
71888;SDS011;59762;49.998;14.858;2024-03-06T06:12:08;37.08;;;15.57;;
71888;SDS011;59762;49.998;14.858;2024-03-06T06:14:34;39.28;;;15.85;;
71888;SDS011;59762;49.998;14.858;2024-03-06T06:17:00;32.85;;;14.25;;
71888;SDS011;59762;49.998;14.858;2024-03-06T06:19:25;48.15;;;21.65;;
71888;SDS011;59762;49.998;14.858;2024-03-06T06:21:51;54.20;;;22.52;;
71888;SDS011;59762;49.998;14.858;2024-03-06T06:24:18;31.90;;;16.17;;
71888;SDS011;59762;49.998;14.858;2024-03-06T06:26:43;35.17;;;15.18;;
71888;SDS011;59762;49.998;14.858;2024-03-06T06:29:09;31.33;;;15.10;;
71888;SDS011;59762;49.998;14.858;2024-03-06T06:31:34;32.40;;;14.63;;
71888;SDS011;59762;49.998;14.858;2024-03-06T06:34:00;33.65;;;14.18;;
71888;SDS011;59762;49.998;14.858;2024-03-06T06:36:26;29.38;;;14.63;;
71888;SDS011;59762;49.998;14.858;2024-03-06T06:38:52;29.70;;;12.05;;
71888;SDS011;59762;49.998;14.858;2024-03-06T06:41:18;25.90;;;11.13;;
71888;SDS011;59762;49.998;14.858;2024-03-06T06:43:45;27.10;;;11.93;;
71888;SDS011;59762;49.998;14.858;2024-03-06T06:46:10;40.40;;;13.48;;
71888;SDS011;59762;49.998;14.858;2024-03-06T06:48:36;25.98;;;12.15;;
71888;SDS011;59762;49.998;14.858;2024-03-06T06:51:02;29.33;;;12.38;;
71888;SDS011;59762;49.998;14.858;2024-03-06T06:53:31;39.58;;;14.88;;
71888;SDS011;59762;49.998;14.858;2024-03-06T06:55:57;40.50;;;13.95;;
71888;SDS011;59762;49.998;14.858;2024-03-06T06:58:22;32.92;;;14.40;;
71888;SDS011;59762;49.998;14.858;2024-03-06T07:00:48;33.72;;;13.98;;
71888;SDS011;59762;49.998;14.858;2024-03-06T07:03:13;39.33;;;16.17;;
71888;SDS011;59762;49.998;14.858;2024-03-06T07:05:39;36.20;;;16.17;;
71888;SDS011;59762;49.998;14.858;2024-03-06T07:08:06;35.38;;;14.32;;
71888;SDS011;59762;49.998;14.858;2024-03-06T07:10:32;35.78;;;16.20;;
71888;SDS011;59762;49.998;14.858;2024-03-06T07:12:57;35.90;;;15.55;;
71888;SDS011;59762;49.998;14.858;2024-03-06T07:15:23;33.00;;;14.10;;
71888;SDS011;59762;49.998;14.858;2024-03-06T07:17:50;28.67;;;13.57;;
71888;SDS011;59762;49.998;14.858;2024-03-06T07:20:15;31.38;;;13.32;;
71888;SDS011;59762;49.998;14.858;2024-03-06T07:22:41;36.85;;;14.48;;
71888;SDS011;59762;49.998;14.858;2024-03-06T07:25:06;30.58;;;13.65;;
71888;SDS011;59762;49.998;14.858;2024-03-06T07:27:32;28.77;;;12.20;;
71888;SDS011;59762;49.998;14.858;2024-03-06T07:29:58;27.38;;;12.20;;
71888;SDS011;59762;49.998;14.858;2024-03-06T07:32:23;30.33;;;13.55;;
71888;SDS011;59762;49.998;14.858;2024-03-06T07:34:49;45.40;;;18.38;;
71888;SDS011;59762;49.998;14.858;2024-03-06T07:37:14;34.08;;;14.48;;
71888;SDS011;59762;49.998;14.858;2024-03-06T07:39:40;35.92;;;13.88;;
71888;SDS011;59762;49.998;14.858;2024-03-06T07:42:05;30.98;;;12.63;;
71888;SDS011;59762;49.998;14.858;2024-03-06T07:44:31;39.45;;;16.00;;
71888;SDS011;59762;49.998;14.858;2024-03-06T07:46:57;28.02;;;13.93;;
71888;SDS011;59762;49.998;14.858;2024-03-06T07:49:22;23.65;;;12.05;;
71888;SDS011;59762;49.998;14.858;2024-03-06T07:51:48;53.75;;;18.90;;
71888;SDS011;59762;49.998;14.858;2024-03-06T07:54:13;66.15;;;20.90;;
71888;SDS011;59762;49.998;14.858;2024-03-06T07:56:39;51.15;;;19.30;;
71888;SDS011;59762;49.998;14.858;2024-03-06T07:59:04;70.90;;;27.35;;
71888;SDS011;59762;49.998;14.858;2024-03-06T08:01:33;63.45;;;22.20;;
71888;SDS011;59762;49.998;14.858;2024-03-06T08:03:58;36.65;;;15.13;;
71888;SDS011;59762;49.998;14.858;2024-03-06T08:06:23;38.90;;;13.52;;
71888;SDS011;59762;49.998;14.858;2024-03-06T08:08:50;27.83;;;13.68;;
71888;SDS011;59762;49.998;14.858;2024-03-06T08:11:17;26.52;;;13.98;;
71888;SDS011;59762;49.998;14.858;2024-03-06T08:13:43;30.90;;;13.75;;
71888;SDS011;59762;49.998;14.858;2024-03-06T08:16:09;27.70;;;13.73;;
71888;SDS011;59762;49.998;14.858;2024-03-06T08:18:34;28.50;;;13.90;;
71888;SDS011;59762;49.998;14.858;2024-03-06T08:21:00;30.42;;;12.85;;
71888;SDS011;59762;49.998;14.858;2024-03-06T08:23:26;37.42;;;13.32;;
71888;SDS011;59762;49.998;14.858;2024-03-06T08:25:51;32.35;;;13.85;;
71888;SDS011;59762;49.998;14.858;2024-03-06T08:28:17;36.40;;;15.32;;
71888;SDS011;59762;49.998;14.858;2024-03-06T08:30:43;29.63;;;15.15;;
71888;SDS011;59762;49.998;14.858;2024-03-06T08:33:09;32.92;;;15.60;;
71888;SDS011;59762;49.998;14.858;2024-03-06T08:35:35;31.40;;;14.85;;
71888;SDS011;59762;49.998;14.858;2024-03-06T08:38:01;45.33;;;19.38;;
71888;SDS011;59762;49.998;14.858;2024-03-06T08:40:26;34.78;;;14.43;;
71888;SDS011;59762;49.998;14.858;2024-03-06T08:42:52;37.00;;;17.00;;
71888;SDS011;59762;49.998;14.858;2024-03-06T08:45:18;72.35;;;26.10;;
71888;SDS011;59762;49.998;14.858;2024-03-06T08:47:47;40.25;;;17.35;;
71888;SDS011;59762;49.998;14.858;2024-03-06T08:50:15;47.35;;;15.35;;
71888;SDS011;59762;49.998;14.858;2024-03-06T08:52:41;38.95;;;15.02;;
71888;SDS011;59762;49.998;14.858;2024-03-06T08:55:07;29.88;;;13.05;;
71888;SDS011;59762;49.998;14.858;2024-03-06T08:57:33;38.75;;;14.55;;
71888;SDS011;59762;49.998;14.858;2024-03-06T08:59:59;31.02;;;14.45;;
71888;SDS011;59762;49.998;14.858;2024-03-06T09:02:25;31.52;;;13.88;;
71888;SDS011;59762;49.998;14.858;2024-03-06T09:04:50;25.55;;;11.93;;
71888;SDS011;59762;49.998;14.858;2024-03-06T09:07:17;28.90;;;13.20;;
71888;SDS011;59762;49.998;14.858;2024-03-06T09:09:42;32.92;;;13.02;;
71888;SDS011;59762;49.998;14.858;2024-03-06T09:12:08;35.22;;;15.05;;
71888;SDS011;59762;49.998;14.858;2024-03-06T09:14:37;31.73;;;13.82;;
71888;SDS011;59762;49.998;14.858;2024-03-06T09:17:03;38.38;;;16.48;;
71888;SDS011;59762;49.998;14.858;2024-03-06T09:19:29;41.35;;;15.45;;
71888;SDS011;59762;49.998;14.858;2024-03-06T09:21:55;34.33;;;14.57;;
71888;SDS011;59762;49.998;14.858;2024-03-06T09:24:21;40.78;;;15.02;;
71888;SDS011;59762;49.998;14.858;2024-03-06T09:26:47;35.13;;;16.42;;
71888;SDS011;59762;49.998;14.858;2024-03-06T09:29:13;41.33;;;17.15;;
71888;SDS011;59762;49.998;14.858;2024-03-06T09:31:38;35.00;;;14.80;;
71888;SDS011;59762;49.998;14.858;2024-03-06T09:34:03;36.25;;;15.70;;
71888;SDS011;59762;49.998;14.858;2024-03-06T09:36:29;38.42;;;14.60;;
71888;SDS011;59762;49.998;14.858;2024-03-06T09:38:54;43.05;;;16.40;;
71888;SDS011;59762;49.998;14.858;2024-03-06T09:41:21;41.30;;;16.52;;
71888;SDS011;59762;49.998;14.858;2024-03-06T09:43:46;32.90;;;13.13;;
71888;SDS011;59762;49.998;14.858;2024-03-06T09:46:12;31.42;;;12.80;;
71888;SDS011;59762;49.998;14.858;2024-03-06T09:48:38;29.20;;;12.40;;
71888;SDS011;59762;49.998;14.858;2024-03-06T09:51:10;35.17;;;13.73;;
71888;SDS011;59762;49.998;14.858;2024-03-06T09:53:37;28.58;;;12.65;;
71888;SDS011;59762;49.998;14.858;2024-03-06T09:56:04;28.20;;;13.10;;
71888;SDS011;59762;49.998;14.858;2024-03-06T09:58:31;31.20;;;13.40;;
71888;SDS011;59762;49.998;14.858;2024-03-06T10:00:57;29.10;;;12.45;;
71888;SDS011;59762;49.998;14.858;2024-03-06T10:03:23;31.00;;;12.50;;
71888;SDS011;59762;49.998;14.858;2024-03-06T10:05:49;31.20;;;13.38;;
71888;SDS011;59762;49.998;14.858;2024-03-06T10:08:14;31.48;;;13.30;;
71888;SDS011;59762;49.998;14.858;2024-03-06T10:10:42;30.05;;;12.57;;
71888;SDS011;59762;49.998;14.858;2024-03-06T10:13:07;27.73;;;13.05;;
71888;SDS011;59762;49.998;14.858;2024-03-06T10:15:33;34.65;;;13.77;;
71888;SDS011;59762;49.998;14.858;2024-03-06T10:20:37;33.15;;;14.63;;
71888;SDS011;59762;49.998;14.858;2024-03-06T10:23:02;38.50;;;13.82;;
71888;SDS011;59762;49.998;14.858;2024-03-06T10:25:27;29.90;;;13.20;;
71888;SDS011;59762;49.998;14.858;2024-03-06T10:28:03;31.73;;;14.65;;
71888;SDS011;59762;49.998;14.858;2024-03-06T10:30:29;39.15;;;14.45;;
71888;SDS011;59762;49.998;14.858;2024-03-06T10:32:54;34.45;;;13.57;;
71888;SDS011;59762;49.998;14.858;2024-03-06T10:35:20;33.75;;;14.00;;
71888;SDS011;59762;49.998;14.858;2024-03-06T10:37:49;28.75;;;13.60;;
71888;SDS011;59762;49.998;14.858;2024-03-06T10:40:15;28.33;;;13.50;;
71888;SDS011;59762;49.998;14.858;2024-03-06T10:42:42;39.25;;;16.70;;
71888;SDS011;59762;49.998;14.858;2024-03-06T10:45:07;44.15;;;19.67;;
71888;SDS011;59762;49.998;14.858;2024-03-06T10:47:34;37.45;;;15.75;;
71888;SDS011;59762;49.998;14.858;2024-03-06T10:50:02;33.15;;;12.85;;
71888;SDS011;59762;49.998;14.858;2024-03-06T10:52:30;28.52;;;11.80;;
71888;SDS011;59762;49.998;14.858;2024-03-06T10:54:58;32.83;;;12.63;;
71888;SDS011;59762;49.998;14.858;2024-03-06T10:57:24;30.17;;;12.02;;
71888;SDS011;59762;49.998;14.858;2024-03-06T10:59:50;32.10;;;13.68;;
71888;SDS011;59762;49.998;14.858;2024-03-06T11:02:17;38.95;;;14.82;;
71888;SDS011;59762;49.998;14.858;2024-03-06T11:04:43;27.05;;;11.93;;
71888;SDS011;59762;49.998;14.858;2024-03-06T11:07:09;28.33;;;12.55;;
71888;SDS011;59762;49.998;14.858;2024-03-06T11:09:35;30.45;;;12.63;;
71888;SDS011;59762;49.998;14.858;2024-03-06T11:12:01;37.88;;;14.90;;
71888;SDS011;59762;49.998;14.858;2024-03-06T11:14:27;24.85;;;11.50;;
71888;SDS011;59762;49.998;14.858;2024-03-06T11:21:52;36.78;;;15.45;;
71888;SDS011;59762;49.998;14.858;2024-03-06T11:24:19;28.13;;;10.63;;
71888;SDS011;59762;49.998;14.858;2024-03-06T11:29:15;23.63;;;9.90;;
71888;SDS011;59762;49.998;14.858;2024-03-06T11:31:55;32.00;;;13.88;;
71888;SDS011;59762;49.998;14.858;2024-03-06T11:34:21;38.25;;;13.73;;
71888;SDS011;59762;49.998;14.858;2024-03-06T11:36:47;24.50;;;10.70;;
71888;SDS011;59762;49.998;14.858;2024-03-06T11:39:12;20.02;;;9.95;;
71888;SDS011;59762;49.998;14.858;2024-03-06T11:44:15;53.65;;;17.90;;
71888;SDS011;59762;49.998;14.858;2024-03-06T11:46:44;77.40;;;24.55;;
71888;SDS011;59762;49.998;14.858;2024-03-06T11:49:16;121.15;;;29.77;;
71888;SDS011;59762;49.998;14.858;2024-03-06T11:51:50;26.38;;;11.63;;
71888;SDS011;59762;49.998;14.858;2024-03-06T11:54:15;21.40;;;10.43;;
71888;SDS011;59762;49.998;14.858;2024-03-06T11:56:44;21.40;;;9.50;;
71888;SDS011;59762;49.998;14.858;2024-03-06T11:59:10;23.17;;;10.38;;
71888;SDS011;59762;49.998;14.858;2024-03-06T12:01:36;26.42;;;10.52;;
71888;SDS011;59762;49.998;14.858;2024-03-06T12:04:02;25.38;;;11.43;;
71888;SDS011;59762;49.998;14.858;2024-03-06T12:06:28;22.30;;;10.75;;
71888;SDS011;59762;49.998;14.858;2024-03-06T12:08:53;17.73;;;9.02;;
71888;SDS011;59762;49.998;14.858;2024-03-06T12:11:19;29.70;;;12.93;;
71888;SDS011;59762;49.998;14.858;2024-03-06T12:13:46;21.73;;;11.48;;
71888;SDS011;59762;49.998;14.858;2024-03-06T12:16:14;27.83;;;11.90;;
71888;SDS011;59762;49.998;14.858;2024-03-06T12:18:39;23.80;;;10.75;;
71888;SDS011;59762;49.998;14.858;2024-03-06T12:21:05;24.42;;;11.35;;
71888;SDS011;59762;49.998;14.858;2024-03-06T12:23:30;23.02;;;10.20;;
71888;SDS011;59762;49.998;14.858;2024-03-06T12:26:05;29.40;;;12.80;;
71888;SDS011;59762;49.998;14.858;2024-03-06T12:28:32;24.30;;;11.35;;
71888;SDS011;59762;49.998;14.858;2024-03-06T12:30:57;35.47;;;13.40;;
71888;SDS011;59762;49.998;14.858;2024-03-06T12:33:26;28.10;;;11.95;;
71888;SDS011;59762;49.998;14.858;2024-03-06T12:40:52;22.05;;;9.32;;
71888;SDS011;59762;49.998;14.858;2024-03-06T12:43:17;34.22;;;11.15;;
71888;SDS011;59762;49.998;14.858;2024-03-06T12:45:43;18.77;;;9.40;;
71888;SDS011;59762;49.998;14.858;2024-03-06T12:48:08;24.25;;;10.57;;
71888;SDS011;59762;49.998;14.858;2024-03-06T12:50:34;22.10;;;9.30;;
71888;SDS011;59762;49.998;14.858;2024-03-06T12:52:59;25.77;;;10.98;;
71888;SDS011;59762;49.998;14.858;2024-03-06T12:55:25;23.45;;;11.63;;
71888;SDS011;59762;49.998;14.858;2024-03-06T12:57:51;21.45;;;9.82;;
71888;SDS011;59762;49.998;14.858;2024-03-06T13:00:16;21.38;;;10.35;;
71888;SDS011;59762;49.998;14.858;2024-03-06T13:02:42;22.08;;;10.52;;
71888;SDS011;59762;49.998;14.858;2024-03-06T13:05:18;23.20;;;11.73;;
71888;SDS011;59762;49.998;14.858;2024-03-06T13:07:45;21.33;;;10.50;;
71888;SDS011;59762;49.998;14.858;2024-03-06T13:10:11;24.52;;;9.85;;
71888;SDS011;59762;49.998;14.858;2024-03-06T13:12:37;21.05;;;9.75;;
71888;SDS011;59762;49.998;14.858;2024-03-06T13:15:03;29.75;;;11.10;;
71888;SDS011;59762;49.998;14.858;2024-03-06T13:20:33;26.02;;;12.20;;
71888;SDS011;59762;49.998;14.858;2024-03-06T13:22:59;30.60;;;10.98;;
71888;SDS011;59762;49.998;14.858;2024-03-06T13:25:24;25.05;;;11.48;;
71888;SDS011;59762;49.998;14.858;2024-03-06T13:27:50;23.92;;;10.88;;
71888;SDS011;59762;49.998;14.858;2024-03-06T13:30:19;24.08;;;11.88;;
71888;SDS011;59762;49.998;14.858;2024-03-06T13:32:45;21.73;;;10.88;;
71888;SDS011;59762;49.998;14.858;2024-03-06T13:35:13;21.60;;;10.45;;
71888;SDS011;59762;49.998;14.858;2024-03-06T13:37:45;24.77;;;11.93;;
71888;SDS011;59762;49.998;14.858;2024-03-06T13:40:11;22.77;;;10.68;;
71888;SDS011;59762;49.998;14.858;2024-03-06T13:42:39;23.50;;;10.65;;
71888;SDS011;59762;49.998;14.858;2024-03-06T13:45:04;27.83;;;11.63;;
71888;SDS011;59762;49.998;14.858;2024-03-06T13:47:30;22.48;;;10.27;;
71888;SDS011;59762;49.998;14.858;2024-03-06T13:49:56;21.08;;;11.27;;
71888;SDS011;59762;49.998;14.858;2024-03-06T13:52:21;23.00;;;10.77;;
71888;SDS011;59762;49.998;14.858;2024-03-06T13:54:48;22.65;;;11.35;;
71888;SDS011;59762;49.998;14.858;2024-03-06T13:57:14;22.83;;;11.68;;
71888;SDS011;59762;49.998;14.858;2024-03-06T13:59:39;23.48;;;11.48;;
71888;SDS011;59762;49.998;14.858;2024-03-06T14:02:05;23.77;;;9.75;;
71888;SDS011;59762;49.998;14.858;2024-03-06T14:04:31;24.83;;;10.90;;
71888;SDS011;59762;49.998;14.858;2024-03-06T14:06:57;23.88;;;10.77;;
71888;SDS011;59762;49.998;14.858;2024-03-06T14:09:23;27.73;;;10.30;;
71888;SDS011;59762;49.998;14.858;2024-03-06T14:11:50;24.63;;;10.77;;
71888;SDS011;59762;49.998;14.858;2024-03-06T14:14:16;24.05;;;12.32;;
71888;SDS011;59762;49.998;14.858;2024-03-06T14:16:43;28.88;;;10.80;;
71888;SDS011;59762;49.998;14.858;2024-03-06T14:19:09;22.67;;;9.77;;
71888;SDS011;59762;49.998;14.858;2024-03-06T14:21:34;30.67;;;10.75;;
71888;SDS011;59762;49.998;14.858;2024-03-06T14:24:00;19.70;;;8.23;;